sensor_id;sensor_type;location;lat;lon;timestamp;pressure;altitude;pressure_sealevel;temperature;humidity
72612;BME280;60655;52.182;4.474;2023-06-22T00:00:13;101916.56;;;17.33;87.19
72612;BME280;60655;52.182;4.474;2023-06-22T00:02:14;101923.34;;;17.24;87.66
72612;BME280;60655;52.182;4.474;2023-06-22T00:04:15;101921.03;;;17.27;87.76
72612;BME280;60655;52.182;4.474;2023-06-22T00:06:16;101922.06;;;17.38;87.23
72612;BME280;60655;52.182;4.474;2023-06-22T00:08:18;101928.25;;;17.38;87.02
72612;BME280;60655;52.182;4.474;2023-06-22T00:10:19;101926.72;;;17.42;86.07
72612;BME280;60655;52.182;4.474;2023-06-22T00:12:20;101921.16;;;17.32;86.33
72612;BME280;60655;52.182;4.474;2023-06-22T00:14:21;101917.72;;;17.37;86.37
72612;BME280;60655;52.182;4.474;2023-06-22T00:16:22;101922.88;;;17.38;86.38
72612;BME280;60655;52.182;4.474;2023-06-22T00:18:23;101908.53;;;17.21;86.37
72612;BME280;60655;52.182;4.474;2023-06-22T00:20:28;101889.47;;;17.11;86.89
72612;BME280;60655;52.182;4.474;2023-06-22T00:22:30;101916.94;;;17.25;86.58
72612;BME280;60655;52.182;4.474;2023-06-22T00:24:31;101912.63;;;17.24;86.64
72612;BME280;60655;52.182;4.474;2023-06-22T00:26:32;101913.63;;;17.34;86.59
72612;BME280;60655;52.182;4.474;2023-06-22T00:28:33;101923.13;;;17.25;87.01
72612;BME280;60655;52.182;4.474;2023-06-22T00:30:35;101908.63;;;17.14;87.44
72612;BME280;60655;52.182;4.474;2023-06-22T00:32:36;101910.16;;;17.22;87.41
72612;BME280;60655;52.182;4.474;2023-06-22T00:34:37;101914.84;;;17.27;87.63
72612;BME280;60655;52.182;4.474;2023-06-22T00:36:38;101915.63;;;17.15;88.30
72612;BME280;60655;52.182;4.474;2023-06-22T00:38:41;101918.09;;;17.17;88.19
72612;BME280;60655;52.182;4.474;2023-06-22T00:40:42;101909.22;;;17.28;87.58
72612;BME280;60655;52.182;4.474;2023-06-22T00:42:43;101911.56;;;17.13;88.38
72612;BME280;60655;52.182;4.474;2023-06-22T00:44:44;101911.56;;;17.13;88.92
72612;BME280;60655;52.182;4.474;2023-06-22T00:46:45;101915.19;;;17.18;88.40
72612;BME280;60655;52.182;4.474;2023-06-22T00:48:46;101909.91;;;17.12;89.15
72612;BME280;60655;52.182;4.474;2023-06-22T00:50:48;101910.84;;;17.06;88.74
72612;BME280;60655;52.182;4.474;2023-06-22T00:52:53;101905.16;;;17.02;88.84
72612;BME280;60655;52.182;4.474;2023-06-22T00:54:57;101897.44;;;16.94;89.08
72612;BME280;60655;52.182;4.474;2023-06-22T00:56:58;101888.75;;;16.80;88.76
72612;BME280;60655;52.182;4.474;2023-06-22T00:59:00;101898.00;;;16.84;88.57
72612;BME280;60655;52.182;4.474;2023-06-22T01:01:03;101899.41;;;16.99;88.01
72612;BME280;60655;52.182;4.474;2023-06-22T01:03:04;101896.81;;;16.80;88.02
72612;BME280;60655;52.182;4.474;2023-06-22T01:05:09;101896.94;;;16.85;88.47
72612;BME280;60655;52.182;4.474;2023-06-22T01:09:22;101892.28;;;16.93;88.27
72612;BME280;60655;52.182;4.474;2023-06-22T01:11:32;101878.25;;;16.79;88.65
72612;BME280;60655;52.182;4.474;2023-06-22T01:13:50;101883.28;;;16.87;88.91
72612;BME280;60655;52.182;4.474;2023-06-22T01:18:18;101887.72;;;16.81;89.61
72612;BME280;60655;52.182;4.474;2023-06-22T01:20:20;101875.56;;;16.79;89.20
72612;BME280;60655;52.182;4.474;2023-06-22T01:22:25;101884.47;;;16.91;88.24
72612;BME280;60655;52.182;4.474;2023-06-22T01:27:18;101887.50;;;16.83;88.48
72612;BME280;60655;52.182;4.474;2023-06-22T01:29:26;101886.66;;;16.82;88.37
72612;BME280;60655;52.182;4.474;2023-06-22T01:31:28;101894.25;;;16.85;88.21
72612;BME280;60655;52.182;4.474;2023-06-22T01:33:33;101897.28;;;16.77;88.66
72612;BME280;60655;52.182;4.474;2023-06-22T01:35:35;101895.31;;;16.73;88.75
72612;BME280;60655;52.182;4.474;2023-06-22T01:37:38;101895.78;;;16.70;88.96
72612;BME280;60655;52.182;4.474;2023-06-22T01:39:39;101892.97;;;16.76;88.97
72612;BME280;60655;52.182;4.474;2023-06-22T01:41:42;101863.97;;;16.55;88.56
72612;BME280;60655;52.182;4.474;2023-06-22T01:43:45;101878.50;;;16.66;88.97
72612;BME280;60655;52.182;4.474;2023-06-22T01:45:46;101872.97;;;16.61;88.75
72612;BME280;60655;52.182;4.474;2023-06-22T01:47:47;101886.66;;;16.71;88.51
72612;BME280;60655;52.182;4.474;2023-06-22T01:49:49;101890.94;;;16.60;88.78
72612;BME280;60655;52.182;4.474;2023-06-22T01:51:52;101887.88;;;16.57;88.98
72612;BME280;60655;52.182;4.474;2023-06-22T01:53:55;101865.00;;;16.54;89.88
72612;BME280;60655;52.182;4.474;2023-06-22T01:55:56;101860.97;;;16.63;89.28
72612;BME280;60655;52.182;4.474;2023-06-22T01:57:58;101871.03;;;16.68;88.97
72612;BME280;60655;52.182;4.474;2023-06-22T02:00:01;101870.75;;;16.58;89.93
72612;BME280;60655;52.182;4.474;2023-06-22T02:02:09;101881.00;;;16.61;89.69
72612;BME280;60655;52.182;4.474;2023-06-22T02:04:19;101878.53;;;16.47;90.06
72612;BME280;60655;52.182;4.474;2023-06-22T02:06:28;101876.66;;;16.48;89.69
72612;BME280;60655;52.182;4.474;2023-06-22T02:08:37;101886.94;;;16.51;89.82
72612;BME280;60655;52.182;4.474;2023-06-22T02:10:40;101882.06;;;16.60;89.32
72612;BME280;60655;52.182;4.474;2023-06-22T02:12:42;101877.97;;;16.57;89.56
72612;BME280;60655;52.182;4.474;2023-06-22T02:14:45;101871.66;;;16.51;89.49
72612;BME280;60655;52.182;4.474;2023-06-22T02:16:51;101877.22;;;16.68;89.27
72612;BME280;60655;52.182;4.474;2023-06-22T02:18:52;101874.56;;;16.50;90.04
72612;BME280;60655;52.182;4.474;2023-06-22T02:20:53;101881.69;;;16.44;90.98
72612;BME280;60655;52.182;4.474;2023-06-22T02:22:54;101880.75;;;16.50;90.64
72612;BME280;60655;52.182;4.474;2023-06-22T02:24:56;101867.91;;;16.41;90.97
72612;BME280;60655;52.182;4.474;2023-06-22T02:27:01;101854.16;;;16.37;90.61
72612;BME280;60655;52.182;4.474;2023-06-22T02:29:02;101868.50;;;16.54;90.12
72612;BME280;60655;52.182;4.474;2023-06-22T02:31:03;101869.91;;;16.57;90.42
72612;BME280;60655;52.182;4.474;2023-06-22T02:33:04;101870.81;;;16.39;91.16
72612;BME280;60655;52.182;4.474;2023-06-22T02:35:05;101876.06;;;16.46;90.75
72612;BME280;60655;52.182;4.474;2023-06-22T02:37:07;101852.00;;;16.28;91.05
72612;BME280;60655;52.182;4.474;2023-06-22T02:39:08;101865.84;;;16.54;90.86
72612;BME280;60655;52.182;4.474;2023-06-22T02:41:09;101867.09;;;16.52;91.18
72612;BME280;60655;52.182;4.474;2023-06-22T02:43:13;101865.34;;;16.46;91.84
72612;BME280;60655;52.182;4.474;2023-06-22T02:45:14;101856.72;;;16.44;91.86
72612;BME280;60655;52.182;4.474;2023-06-22T02:47:15;101877.69;;;16.47;92.40
72612;BME280;60655;52.182;4.474;2023-06-22T02:49:16;101867.47;;;16.55;92.24
72612;BME280;60655;52.182;4.474;2023-06-22T02:51:17;101872.00;;;16.55;91.88
72612;BME280;60655;52.182;4.474;2023-06-22T02:53:18;101872.59;;;16.45;91.68
72612;BME280;60655;52.182;4.474;2023-06-22T02:55:20;101874.56;;;16.50;90.86
72612;BME280;60655;52.182;4.474;2023-06-22T02:57:21;101856.38;;;16.52;90.49
72612;BME280;60655;52.182;4.474;2023-06-22T02:59:22;101858.97;;;16.59;90.44
72612;BME280;60655;52.182;4.474;2023-06-22T03:01:24;101863.84;;;16.50;90.83
72612;BME280;60655;52.182;4.474;2023-06-22T03:03:25;101869.31;;;16.43;91.50
72612;BME280;60655;52.182;4.474;2023-06-22T03:05:27;101856.47;;;16.34;91.98
72612;BME280;60655;52.182;4.474;2023-06-22T03:07:28;101866.06;;;16.41;91.74
72612;BME280;60655;52.182;4.474;2023-06-22T03:09:31;101870.59;;;16.41;91.24
72612;BME280;60655;52.182;4.474;2023-06-22T03:11:33;101868.97;;;16.40;91.00
72612;BME280;60655;52.182;4.474;2023-06-22T03:13:34;101872.94;;;16.49;89.95
72612;BME280;60655;52.182;4.474;2023-06-22T03:15:35;101867.06;;;16.29;90.94
72612;BME280;60655;52.182;4.474;2023-06-22T03:17:37;101865.41;;;16.28;90.55
72612;BME280;60655;52.182;4.474;2023-06-22T03:19:39;101881.13;;;16.24;91.27
72612;BME280;60655;52.182;4.474;2023-06-22T03:21:40;101870.63;;;16.11;91.46
72612;BME280;60655;52.182;4.474;2023-06-22T03:23:41;101860.88;;;16.28;90.60
72612;BME280;60655;52.182;4.474;2023-06-22T03:25:43;101839.16;;;16.18;91.04
72612;BME280;60655;52.182;4.474;2023-06-22T03:27:47;101837.66;;;16.22;90.91
72612;BME280;60655;52.182;4.474;2023-06-22T03:29:48;101850.69;;;16.18;91.58
72612;BME280;60655;52.182;4.474;2023-06-22T03:31:50;101821.94;;;15.96;91.39
72612;BME280;60655;52.182;4.474;2023-06-22T03:33:51;101851.34;;;16.02;91.44
72612;BME280;60655;52.182;4.474;2023-06-22T03:35:51;101851.34;;;16.02;91.52
72612;BME280;60655;52.182;4.474;2023-06-22T03:37:53;101830.78;;;16.14;91.14
72612;BME280;60655;52.182;4.474;2023-06-22T03:39:54;101833.69;;;16.25;91.15
72612;BME280;60655;52.182;4.474;2023-06-22T03:41:55;101835.09;;;16.15;91.86
72612;BME280;60655;52.182;4.474;2023-06-22T03:43:56;101830.28;;;16.17;91.62
72612;BME280;60655;52.182;4.474;2023-06-22T03:45:57;101822.00;;;16.07;91.26
72612;BME280;60655;52.182;4.474;2023-06-22T03:47:58;101838.75;;;16.03;91.16
72612;BME280;60655;52.182;4.474;2023-06-22T03:49:59;101834.22;;;16.03;91.22
72612;BME280;60655;52.182;4.474;2023-06-22T03:52:01;101840.84;;;16.01;91.23
72612;BME280;60655;52.182;4.474;2023-06-22T03:54:05;101837.50;;;16.05;91.03
72612;BME280;60655;52.182;4.474;2023-06-22T03:56:06;101840.16;;;16.05;91.51
72612;BME280;60655;52.182;4.474;2023-06-22T03:58:07;101839.56;;;16.03;91.07
72612;BME280;60655;52.182;4.474;2023-06-22T04:00:10;101833.03;;;15.99;91.35
72612;BME280;60655;52.182;4.474;2023-06-22T04:02:11;101840.31;;;16.22;90.79
72612;BME280;60655;52.182;4.474;2023-06-22T04:04:12;101835.19;;;16.20;91.38
72612;BME280;60655;52.182;4.474;2023-06-22T04:06:13;101837.41;;;16.24;90.73
72612;BME280;60655;52.182;4.474;2023-06-22T04:08:15;101836.38;;;16.25;90.71
72612;BME280;60655;52.182;4.474;2023-06-22T04:10:16;101837.41;;;16.24;90.95
72612;BME280;60655;52.182;4.474;2023-06-22T04:12:17;101825.63;;;16.13;91.05
72612;BME280;60655;52.182;4.474;2023-06-22T04:14:18;101824.69;;;16.07;91.16
72612;BME280;60655;52.182;4.474;2023-06-22T04:16:19;101834.84;;;16.17;91.68
72612;BME280;60655;52.182;4.474;2023-06-22T04:18:20;101835.81;;;16.34;90.86
72612;BME280;60655;52.182;4.474;2023-06-22T04:20:22;101827.91;;;16.39;90.61
72612;BME280;60655;52.182;4.474;2023-06-22T04:22:23;101829.50;;;16.29;91.40
72612;BME280;60655;52.182;4.474;2023-06-22T04:24:23;101823.09;;;16.30;91.29
72612;BME280;60655;52.182;4.474;2023-06-22T04:26:24;101832.09;;;16.35;91.11
72612;BME280;60655;52.182;4.474;2023-06-22T04:28:25;101833.88;;;16.41;91.78
72612;BME280;60655;52.182;4.474;2023-06-22T04:30:26;101837.59;;;16.52;92.43
72612;BME280;60655;52.182;4.474;2023-06-22T04:32:27;101838.66;;;16.51;92.63
72612;BME280;60655;52.182;4.474;2023-06-22T04:34:29;101833.88;;;16.53;92.90
72612;BME280;60655;52.182;4.474;2023-06-22T04:36:30;101845.03;;;16.68;92.47
72612;BME280;60655;52.182;4.474;2023-06-22T04:38:38;101836.38;;;16.66;91.87
72612;BME280;60655;52.182;4.474;2023-06-22T04:40:39;101834.88;;;16.82;91.93
72612;BME280;60655;52.182;4.474;2023-06-22T04:42:40;101844.78;;;16.93;91.88
72612;BME280;60655;52.182;4.474;2023-06-22T04:44:44;101833.25;;;16.93;92.14
72612;BME280;60655;52.182;4.474;2023-06-22T04:46:45;101838.03;;;17.02;92.67
72612;BME280;60655;52.182;4.474;2023-06-22T04:48:46;101826.22;;;17.15;92.64
72612;BME280;60655;52.182;4.474;2023-06-22T04:50:47;101842.91;;;17.29;92.36
72612;BME280;60655;52.182;4.474;2023-06-22T04:52:48;101839.03;;;17.36;92.69
72612;BME280;60655;52.182;4.474;2023-06-22T04:54:49;101841.34;;;17.44;92.71
72612;BME280;60655;52.182;4.474;2023-06-22T04:56:56;101848.47;;;17.50;92.78
72612;BME280;60655;52.182;4.474;2023-06-22T04:59:00;101841.91;;;17.58;92.30
72612;BME280;60655;52.182;4.474;2023-06-22T05:01:01;101839.81;;;17.60;92.51
72612;BME280;60655;52.182;4.474;2023-06-22T05:03:02;101848.66;;;17.72;92.65
72612;BME280;60655;52.182;4.474;2023-06-22T05:05:04;101828.31;;;17.76;92.55
72612;BME280;60655;52.182;4.474;2023-06-22T05:07:07;101808.09;;;17.74;92.33
72612;BME280;60655;52.182;4.474;2023-06-22T05:09:08;101766.09;;;17.56;92.22
72612;BME280;60655;52.182;4.474;2023-06-22T05:11:09;101848.06;;;18.10;92.47
72612;BME280;60655;52.182;4.474;2023-06-22T05:13:10;101834.84;;;18.09;92.53
72612;BME280;60655;52.182;4.474;2023-06-22T05:15:12;101850.09;;;18.20;92.65
72612;BME280;60655;52.182;4.474;2023-06-22T05:17:12;101834.38;;;18.29;92.64
72612;BME280;60655;52.182;4.474;2023-06-22T05:19:14;101825.59;;;18.33;92.40
72612;BME280;60655;52.182;4.474;2023-06-22T05:21:15;101834.78;;;18.54;92.16
72612;BME280;60655;52.182;4.474;2023-06-22T05:23:16;101828.56;;;18.65;91.73
72612;BME280;60655;52.182;4.474;2023-06-22T05:25:17;101828.88;;;18.69;91.25
72612;BME280;60655;52.182;4.474;2023-06-22T05:27:18;101842.59;;;18.67;91.76
72612;BME280;60655;52.182;4.474;2023-06-22T05:29:20;101829.78;;;18.74;91.67
72612;BME280;60655;52.182;4.474;2023-06-22T05:31:22;101844.34;;;18.78;91.86
72612;BME280;60655;52.182;4.474;2023-06-22T05:33:23;101849.19;;;18.76;92.16
72612;BME280;60655;52.182;4.474;2023-06-22T05:35:24;101851.16;;;18.64;91.45
72612;BME280;60655;52.182;4.474;2023-06-22T05:37:26;101843.56;;;18.61;91.79
72612;BME280;60655;52.182;4.474;2023-06-22T05:39:27;101827.16;;;18.63;92.09
72612;BME280;60655;52.182;4.474;2023-06-22T05:41:27;101836.31;;;18.62;91.10
72612;BME280;60655;52.182;4.474;2023-06-22T05:43:28;101830.19;;;18.66;91.50
72612;BME280;60655;52.182;4.474;2023-06-22T05:45:29;101836.22;;;18.73;91.24
72612;BME280;60655;52.182;4.474;2023-06-22T05:47:30;101833.84;;;18.77;90.72
72612;BME280;60655;52.182;4.474;2023-06-22T05:49:34;101841.84;;;18.88;91.37
72612;BME280;60655;52.182;4.474;2023-06-22T05:51:35;101827.31;;;18.89;91.28
72612;BME280;60655;52.182;4.474;2023-06-22T05:53:36;101839.06;;;18.83;91.32
72612;BME280;60655;52.182;4.474;2023-06-22T05:55:37;101843.72;;;18.88;91.05
72612;BME280;60655;52.182;4.474;2023-06-22T05:57:38;101836.59;;;18.99;90.85
72612;BME280;60655;52.182;4.474;2023-06-22T05:59:39;101838.44;;;19.15;90.82
72612;BME280;60655;52.182;4.474;2023-06-22T06:01:40;101851.09;;;19.14;90.46
72612;BME280;60655;52.182;4.474;2023-06-22T06:03:41;101853.03;;;19.19;89.64
72612;BME280;60655;52.182;4.474;2023-06-22T06:05:43;101842.91;;;19.26;89.51
72612;BME280;60655;52.182;4.474;2023-06-22T06:07:45;101832.19;;;19.31;89.37
72612;BME280;60655;52.182;4.474;2023-06-22T06:09:46;101839.50;;;19.52;89.02
72612;BME280;60655;52.182;4.474;2023-06-22T06:11:48;101839.41;;;19.47;88.93
72612;BME280;60655;52.182;4.474;2023-06-22T06:13:49;101828.88;;;19.46;89.23
72612;BME280;60655;52.182;4.474;2023-06-22T06:15:50;101830.00;;;19.50;88.76
72612;BME280;60655;52.182;4.474;2023-06-22T06:17:52;101830.66;;;19.57;89.53
72612;BME280;60655;52.182;4.474;2023-06-22T06:19:53;101835.34;;;19.67;89.01
72612;BME280;60655;52.182;4.474;2023-06-22T06:21:54;101819.97;;;19.67;89.26
72612;BME280;60655;52.182;4.474;2023-06-22T06:23:55;101823.16;;;19.86;89.25
72612;BME280;60655;52.182;4.474;2023-06-22T06:25:56;101824.03;;;20.18;87.86
72612;BME280;60655;52.182;4.474;2023-06-22T06:27:58;101829.69;;;20.44;86.08
72612;BME280;60655;52.182;4.474;2023-06-22T06:29:59;101829.75;;;20.54;83.98
72612;BME280;60655;52.182;4.474;2023-06-22T06:32:00;101835.13;;;20.54;83.74
72612;BME280;60655;52.182;4.474;2023-06-22T06:34:01;101822.44;;;20.49;83.33
72612;BME280;60655;52.182;4.474;2023-06-22T06:36:03;101835.53;;;20.68;83.71
72612;BME280;60655;52.182;4.474;2023-06-22T06:38:04;101830.16;;;20.73;82.58
72612;BME280;60655;52.182;4.474;2023-06-22T06:40:06;101840.19;;;20.77;82.62
72612;BME280;60655;52.182;4.474;2023-06-22T06:42:11;101836.22;;;20.90;82.20
72612;BME280;60655;52.182;4.474;2023-06-22T06:44:12;101828.69;;;20.97;82.30
72612;BME280;60655;52.182;4.474;2023-06-22T06:46:13;101826.91;;;21.18;80.16
72612;BME280;60655;52.182;4.474;2023-06-22T06:48:14;101827.72;;;21.18;79.48
72612;BME280;60655;52.182;4.474;2023-06-22T06:50:15;101826.72;;;21.25;79.55
72612;BME280;60655;52.182;4.474;2023-06-22T06:52:16;101817.81;;;21.29;78.96
72612;BME280;60655;52.182;4.474;2023-06-22T06:54:17;101824.63;;;21.42;78.09
72612;BME280;60655;52.182;4.474;2023-06-22T06:56:21;101797.84;;;21.35;78.51
72612;BME280;60655;52.182;4.474;2023-06-22T06:58:25;101813.03;;;21.51;78.57
72612;BME280;60655;52.182;4.474;2023-06-22T07:00:26;101793.84;;;21.53;78.31
72612;BME280;60655;52.182;4.474;2023-06-22T07:02:27;101820.69;;;21.75;77.00
72612;BME280;60655;52.182;4.474;2023-06-22T07:04:31;101812.31;;;21.81;75.13
72612;BME280;60655;52.182;4.474;2023-06-22T07:06:32;101803.94;;;21.88;75.39
72612;BME280;60655;52.182;4.474;2023-06-22T07:08:34;101802.88;;;21.94;75.25
72612;BME280;60655;52.182;4.474;2023-06-22T07:10:37;101814.56;;;22.10;73.88
72612;BME280;60655;52.182;4.474;2023-06-22T07:12:38;101803.75;;;22.15;74.16
72612;BME280;60655;52.182;4.474;2023-06-22T07:14:39;101809.94;;;22.26;73.19
72612;BME280;60655;52.182;4.474;2023-06-22T07:16:40;101813.19;;;22.28;73.60
72612;BME280;60655;52.182;4.474;2023-06-22T07:18:41;101814.81;;;22.29;70.84
72612;BME280;60655;52.182;4.474;2023-06-22T07:20:42;101810.22;;;22.34;70.86
72612;BME280;60655;52.182;4.474;2023-06-22T07:22:44;101808.31;;;22.30;70.00
72612;BME280;60655;52.182;4.474;2023-06-22T07:24:48;101802.09;;;22.34;71.08
72612;BME280;60655;52.182;4.474;2023-06-22T07:26:50;101806.44;;;22.40;70.52
72612;BME280;60655;52.182;4.474;2023-06-22T07:28:51;101807.25;;;22.46;69.34
72612;BME280;60655;52.182;4.474;2023-06-22T07:30:52;101805.34;;;22.62;69.42
72612;BME280;60655;52.182;4.474;2023-06-22T07:32:53;101783.94;;;22.60;68.02
72612;BME280;60655;52.182;4.474;2023-06-22T07:34:54;101797.75;;;22.69;67.06
72612;BME280;60655;52.182;4.474;2023-06-22T07:36:55;101797.75;;;22.64;67.29
72612;BME280;60655;52.182;4.474;2023-06-22T07:38:56;101797.47;;;22.60;66.21
72612;BME280;60655;52.182;4.474;2023-06-22T07:40:57;101784.78;;;22.50;66.62
72612;BME280;60655;52.182;4.474;2023-06-22T07:42:58;101790.44;;;22.69;65.82
72612;BME280;60655;52.182;4.474;2023-06-22T07:44:59;101785.28;;;22.73;65.59
72612;BME280;60655;52.182;4.474;2023-06-22T07:47:01;101779.63;;;22.79;64.54
72612;BME280;60655;52.182;4.474;2023-06-22T07:49:02;101782.84;;;22.76;63.19
72612;BME280;60655;52.182;4.474;2023-06-22T07:53:04;101769.13;;;23.27;64.40
72612;BME280;60655;52.182;4.474;2023-06-22T07:55:05;101776.97;;;23.34;63.41
72612;BME280;60655;52.182;4.474;2023-06-22T07:57:06;101781.78;;;23.42;61.73
72612;BME280;60655;52.182;4.474;2023-06-22T07:59:07;101773.44;;;23.33;60.64
72612;BME280;60655;52.182;4.474;2023-06-22T08:01:08;101777.50;;;23.36;59.67
72612;BME280;60655;52.182;4.474;2023-06-22T08:03:09;101755.84;;;23.26;61.38
72612;BME280;60655;52.182;4.474;2023-06-22T08:05:10;101760.44;;;23.30;59.30
72612;BME280;60655;52.182;4.474;2023-06-22T08:07:12;101769.84;;;23.48;60.48
72612;BME280;60655;52.182;4.474;2023-06-22T08:09:13;101745.44;;;23.53;60.01
72612;BME280;60655;52.182;4.474;2023-06-22T08:11:14;101764.09;;;23.65;57.20
72612;BME280;60655;52.182;4.474;2023-06-22T08:13:15;101754.88;;;23.66;56.08
72612;BME280;60655;52.182;4.474;2023-06-22T08:15:16;101755.03;;;23.79;54.88
72612;BME280;60655;52.182;4.474;2023-06-22T08:17:17;101750.34;;;23.90;57.18
72612;BME280;60655;52.182;4.474;2023-06-22T08:19:18;101738.44;;;23.86;57.05
72612;BME280;60655;52.182;4.474;2023-06-22T08:21:19;101752.97;;;24.00;55.98
72612;BME280;60655;52.182;4.474;2023-06-22T08:23:20;101745.84;;;24.09;56.81
72612;BME280;60655;52.182;4.474;2023-06-22T08:25:21;101747.69;;;24.14;56.21
72612;BME280;60655;52.182;4.474;2023-06-22T08:27:22;101741.47;;;24.13;57.30
72612;BME280;60655;52.182;4.474;2023-06-22T08:29:24;101752.28;;;24.18;56.37
72612;BME280;60655;52.182;4.474;2023-06-22T08:31:25;101747.81;;;23.99;55.75
72612;BME280;60655;52.182;4.474;2023-06-22T08:33:26;101752.22;;;23.95;55.94
72612;BME280;60655;52.182;4.474;2023-06-22T08:35:28;101742.31;;;24.09;56.61
72612;BME280;60655;52.182;4.474;2023-06-22T08:37:30;101753.66;;;24.16;56.13
72612;BME280;60655;52.182;4.474;2023-06-22T08:39:35;101743.09;;;24.14;54.83
72612;BME280;60655;52.182;4.474;2023-06-22T08:41:37;101758.19;;;24.26;55.86
72612;BME280;60655;52.182;4.474;2023-06-22T08:43:38;101741.22;;;24.10;56.24
72612;BME280;60655;52.182;4.474;2023-06-22T08:45:39;101734.66;;;24.16;56.28
72612;BME280;60655;52.182;4.474;2023-06-22T08:47:40;101736.97;;;24.33;57.74
72612;BME280;60655;52.182;4.474;2023-06-22T08:49:42;101746.06;;;24.47;56.95
72612;BME280;60655;52.182;4.474;2023-06-22T08:51:42;101739.25;;;24.49;56.31
72612;BME280;60655;52.182;4.474;2023-06-22T08:53:46;101736.41;;;24.60;56.74
72612;BME280;60655;52.182;4.474;2023-06-22T08:55:47;101737.78;;;24.57;56.14
72612;BME280;60655;52.182;4.474;2023-06-22T08:57:48;101736.47;;;24.54;55.39
72612;BME280;60655;52.182;4.474;2023-06-22T08:59:49;101736.59;;;24.44;55.33
72612;BME280;60655;52.182;4.474;2023-06-22T09:01:52;101727.53;;;24.54;56.88
72612;BME280;60655;52.182;4.474;2023-06-22T09:03:53;101724.69;;;24.64;56.71
72612;BME280;60655;52.182;4.474;2023-06-22T09:05:58;101729.59;;;24.86;54.97
72612;BME280;60655;52.182;4.474;2023-06-22T09:07:59;101732.53;;;24.89;55.74
72612;BME280;60655;52.182;4.474;2023-06-22T09:10:00;101731.97;;;24.92;54.94
72612;BME280;60655;52.182;4.474;2023-06-22T09:12:01;101729.38;;;25.06;54.10
72612;BME280;60655;52.182;4.474;2023-06-22T09:14:02;101727.59;;;24.97;55.67
72612;BME280;60655;52.182;4.474;2023-06-22T09:16:04;101734.03;;;25.06;54.74
72612;BME280;60655;52.182;4.474;2023-06-22T09:18:05;101732.97;;;25.02;55.26
72612;BME280;60655;52.182;4.474;2023-06-22T09:20:07;101683.53;;;24.76;55.59
72612;BME280;60655;52.182;4.474;2023-06-22T09:22:10;101727.78;;;25.05;56.16
72612;BME280;60655;52.182;4.474;2023-06-22T09:24:11;101727.19;;;25.08;56.17
72612;BME280;60655;52.182;4.474;2023-06-22T09:26:12;101726.81;;;25.15;55.80
72612;BME280;60655;52.182;4.474;2023-06-22T09:28:14;101727.13;;;25.32;55.56
72612;BME280;60655;52.182;4.474;2023-06-22T09:30:15;101728.66;;;25.19;55.28
72612;BME280;60655;52.182;4.474;2023-06-22T09:32:19;101723.91;;;25.30;55.75
72612;BME280;60655;52.182;4.474;2023-06-22T09:34:20;101720.31;;;25.35;55.46
72612;BME280;60655;52.182;4.474;2023-06-22T09:36:21;101720.59;;;25.33;56.48
72612;BME280;60655;52.182;4.474;2023-06-22T09:38:22;101720.88;;;25.32;56.59
72612;BME280;60655;52.182;4.474;2023-06-22T09:40:23;101732.69;;;25.22;56.50
72612;BME280;60655;52.182;4.474;2023-06-22T09:42:24;101719.63;;;25.24;56.84
72612;BME280;60655;52.182;4.474;2023-06-22T09:44:25;101726.63;;;25.30;56.49
72612;BME280;60655;52.182;4.474;2023-06-22T09:46:26;101727.50;;;25.26;56.47
72612;BME280;60655;52.182;4.474;2023-06-22T09:48:28;101704.25;;;25.14;57.05
72612;BME280;60655;52.182;4.474;2023-06-22T09:50:31;101718.38;;;25.35;55.91
72612;BME280;60655;52.182;4.474;2023-06-22T09:52:31;101722.22;;;25.34;54.88
72612;BME280;60655;52.182;4.474;2023-06-22T09:54:33;101707.56;;;25.30;53.93
72612;BME280;60655;52.182;4.474;2023-06-22T09:56:33;101702.56;;;25.18;54.15
72612;BME280;60655;52.182;4.474;2023-06-22T09:58:37;101705.97;;;25.29;55.13
72612;BME280;60655;52.182;4.474;2023-06-22T10:00:38;101692.56;;;25.14;54.17
72612;BME280;60655;52.182;4.474;2023-06-22T10:02:41;101696.41;;;25.32;53.81
72612;BME280;60655;52.182;4.474;2023-06-22T10:04:42;101693.31;;;25.19;54.21
72612;BME280;60655;52.182;4.474;2023-06-22T10:06:43;101688.16;;;25.18;54.86
72612;BME280;60655;52.182;4.474;2023-06-22T10:08:44;101701.69;;;25.23;53.28
72612;BME280;60655;52.182;4.474;2023-06-22T10:10:45;101701.22;;;25.16;53.52
72612;BME280;60655;52.182;4.474;2023-06-22T10:12:55;101701.97;;;25.21;52.86
72612;BME280;60655;52.182;4.474;2023-06-22T10:14:56;101693.31;;;25.19;53.25
72612;BME280;60655;52.182;4.474;2023-06-22T10:17:02;101670.50;;;25.15;52.59
72612;BME280;60655;52.182;4.474;2023-06-22T10:19:03;101685.94;;;25.20;53.37
72612;BME280;60655;52.182;4.474;2023-06-22T10:21:04;101695.66;;;25.26;54.16
72612;BME280;60655;52.182;4.474;2023-06-22T10:23:05;101696.47;;;25.27;54.43
72612;BME280;60655;52.182;4.474;2023-06-22T10:25:06;101699.41;;;25.49;54.03
72612;BME280;60655;52.182;4.474;2023-06-22T10:27:08;101692.88;;;25.31;53.91
72612;BME280;60655;52.182;4.474;2023-06-22T10:29:08;101695.81;;;25.35;54.31
72612;BME280;60655;52.182;4.474;2023-06-22T10:31:09;101706.25;;;25.28;53.59
72612;BME280;60655;52.182;4.474;2023-06-22T10:33:11;101700.81;;;25.28;53.13
72612;BME280;60655;52.182;4.474;2023-06-22T10:35:12;101691.63;;;25.23;52.27
72612;BME280;60655;52.182;4.474;2023-06-22T10:37:16;101699.94;;;25.32;53.23
72612;BME280;60655;52.182;4.474;2023-06-22T10:39:17;101703.16;;;25.34;52.63
72612;BME280;60655;52.182;4.474;2023-06-22T10:41:18;101706.69;;;25.35;52.50
72612;BME280;60655;52.182;4.474;2023-06-22T10:43:19;101703.53;;;25.28;53.20
72612;BME280;60655;52.182;4.474;2023-06-22T10:45:20;101698.22;;;25.17;54.06